Time;durP1;ratioP1;P1;durP2;ratioP2;P2;SDS_P1;SDS_P2;PMS_P1;PMS_P2;Temp;Humidity;BMP_temperature;BMP_pressure;BME280_temperature;BME280_humidity;BME280_pressure;Samples;Min_cycle;Max_cycle;Signal;HPM_P1;HPM_P2
2022/11/27 00:00:21;;;;;;;15.00;6.38;;;6.00;99.90;;;;;;5055871;28;20028;-80
2022/11/27 00:02:47;;;;;;;23.20;6.65;;;6.00;99.90;;;;;;5057505;28;20485;-80
2022/11/27 00:05:13;;;;;;;19.75;6.88;;;5.90;99.90;;;;;;5061484;28;20119;-79
2022/11/27 00:07:38;;;;;;;13.82;6.38;;;5.90;99.90;;;;;;5059872;28;20091;-79
2022/11/27 00:10:05;;;;;;;20.90;8.05;;;5.90;99.90;;;;;;5061764;28;20033;-80
2022/11/27 00:12:31;;;;;;;18.67;6.93;;;5.90;99.90;;;;;;5054823;28;20486;-79
2022/11/27 00:14:56;;;;;;;19.63;6.13;;;5.80;99.90;;;;;;5060093;28;20035;-79
2022/11/27 00:17:25;;;;;;;15.05;6.65;;;5.70;99.90;;;;;;5061937;28;20028;-78
2022/11/27 00:19:50;;;;;;;21.15;6.32;;;5.70;99.90;;;;;;5058668;28;20045;-80
2022/11/27 00:22:16;;;;;;;14.70;5.85;;;5.60;99.90;;;;;;5063533;28;20389;-80
2022/11/27 00:24:42;;;;;;;16.63;6.35;;;5.50;99.90;;;;;;5058665;28;20021;-79
2022/11/27 00:27:09;;;;;;;14.32;7.47;;;5.40;99.90;;;;;;5059039;28;20086;-80
2022/11/27 00:29:35;;;;;;;19.05;6.90;;;5.30;99.90;;;;;;5058798;28;20083;-80
2022/11/27 00:32:01;;;;;;;17.52;6.25;;;5.20;99.90;;;;;;5058033;28;20029;-79
2022/11/27 00:34:26;;;;;;;9.35;5.90;;;5.10;99.90;;;;;;5060879;28;20024;-80
2022/11/27 00:36:52;;;;;;;11.90;6.10;;;5.10;99.90;;;;;;5056067;28;20041;-79
2022/11/27 00:39:18;;;;;;;15.48;6.07;;;5.10;99.90;;;;;;5057489;28;20400;-80
2022/11/27 00:41:44;;;;;;;19.70;7.18;;;5.00;99.90;;;;;;5062343;28;20044;-79
2022/11/27 00:44:12;;;;;;;19.05;6.72;;;5.10;99.90;;;;;;5063206;28;20484;-79
2022/11/27 00:46:39;;;;;;;14.25;5.82;;;5.10;99.90;;;;;;5062590;28;20029;-80
2022/11/27 00:49:06;;;;;;;19.38;6.70;;;5.20;99.90;;;;;;5059816;28;20037;-80
2022/11/27 00:51:32;;;;;;;20.98;6.55;;;5.30;99.90;;;;;;5061350;28;20025;-80
2022/11/27 00:53:58;;;;;;;16.17;6.43;;;5.40;99.90;;;;;;5063146;28;20119;-80
2022/11/27 00:56:26;;;;;;;22.92;6.45;;;5.50;99.90;;;;;;5055646;28;20103;-79
2022/11/27 00:58:53;;;;;;;16.88;5.97;;;5.60;99.90;;;;;;5060926;28;20242;-79
2022/11/27 01:01:24;;;;;;;13.98;5.25;;;5.60;99.90;;;;;;5062214;28;20048;-80
2022/11/27 01:03:50;;;;;;;20.77;6.38;;;5.70;99.90;;;;;;5064151;28;20029;-80
2022/11/27 01:06:18;;;;;;;24.13;6.28;;;5.80;99.90;;;;;;5060930;28;20025;-80
2022/11/27 01:08:44;;;;;;;18.30;6.30;;;5.90;99.90;;;;;;5061964;28;20123;-80
2022/11/27 01:11:19;;;;;;;20.35;7.22;;;6.00;99.90;;;;;;5057407;28;20193;-80
2022/11/27 01:13:45;;;;;;;26.00;8.27;;;6.10;99.90;;;;;;5060912;28;20040;-79
2022/11/27 01:16:14;;;;;;;28.52;8.35;;;6.10;99.90;;;;;;5058148;28;20036;-81
2022/11/27 01:18:41;;;;;;;25.98;8.77;;;6.20;99.90;;;;;;5056861;28;20032;-80
2022/11/27 01:21:07;;;;;;;30.13;8.25;;;6.20;99.90;;;;;;5062949;28;20296;-79
2022/11/27 01:23:33;;;;;;;26.23;8.32;;;6.20;99.90;;;;;;5056217;28;20891;-79
2022/11/27 01:26:04;;;;;;;22.55;8.82;;;6.20;99.90;;;;;;5057122;28;20119;-80
2022/11/27 01:28:30;;;;;;;31.15;8.80;;;6.10;99.90;;;;;;5056874;28;20075;-79
2022/11/27 01:30:56;;;;;;;25.67;8.45;;;6.10;99.90;;;;;;5061283;28;20491;-78
2022/11/27 01:33:22;;;;;;;25.83;7.80;;;6.00;99.90;;;;;;5063220;28;20147;-79
2022/11/27 01:35:59;;;;;;;23.65;8.18;;;6.00;99.90;;;;;;5058759;28;20028;-79
2022/11/27 01:38:26;;;;;;;28.67;8.27;;;5.90;99.90;;;;;;5054122;28;20029;-78
2022/11/27 01:41:00;;;;;;;24.65;8.65;;;5.90;99.90;;;;;;5056437;28;20099;-78
2022/11/27 01:43:56;;;;;;;20.60;9.32;;;5.90;99.90;;;;;;5060706;28;20033;-79
2022/11/27 01:46:35;;;;;;;23.45;9.63;;;5.80;99.90;;;;;;5048891;28;20507;-79
2022/11/27 01:49:00;;;;;;;27.63;8.80;;;5.80;99.90;;;;;;5055216;28;20589;-79
2022/11/27 01:51:26;;;;;;;17.77;8.27;;;5.80;99.90;;;;;;5059607;28;20112;-80
2022/11/27 01:53:53;;;;;;;17.98;9.05;;;5.70;99.90;;;;;;5052688;28;20321;-79
2022/11/27 01:56:20;;;;;;;18.75;7.40;;;5.60;99.90;;;;;;5057941;28;20031;-80
2022/11/27 01:58:46;;;;;;;25.23;9.18;;;5.60;99.90;;;;;;5057219;28;20093;-80
2022/11/27 02:01:11;;;;;;;20.13;7.40;;;5.60;99.90;;;;;;5052086;28;20080;-80
2022/11/27 02:03:37;;;;;;;18.33;7.40;;;5.60;99.90;;;;;;5061111;28;20020;-78
2022/11/27 02:06:02;;;;;;;17.83;7.97;;;5.60;99.90;;;;;;5061631;28;20544;-79
2022/11/27 02:08:28;;;;;;;18.42;7.15;;;5.70;99.90;;;;;;5058540;28;20029;-80
2022/11/27 02:11:10;;;;;;;16.60;7.35;;;5.70;99.90;;;;;;5056573;28;20029;-79
2022/11/27 02:13:51;;;;;;;24.30;7.35;;;5.70;99.90;;;;;;5062204;28;20021;-79
2022/11/27 02:16:27;;;;;;;19.30;7.88;;;5.60;99.90;;;;;;5056462;28;20050;-79
2022/11/27 02:19:07;;;;;;;21.05;8.85;;;5.60;99.90;;;;;;5060505;28;20432;-79
2022/11/27 02:21:41;;;;;;;18.38;8.00;;;5.60;99.90;;;;;;5056352;28;20275;-79
2022/11/27 02:24:42;;;;;;;9.52;6.07;;;5.60;99.90;;;;;;5064186;28;20036;-79
2022/11/27 02:27:26;;;;;;;12.98;6.78;;;5.50;99.90;;;;;;5059626;28;20075;-78
2022/11/27 02:29:57;;;;;;;19.73;7.00;;;5.50;99.90;;;;;;5056676;28;20041;-78
2022/11/27 02:32:48;;;;;;;16.10;6.65;;;5.50;99.90;;;;;;5057255;28;20017;-78
2022/11/27 02:35:46;;;;;;;13.73;5.72;;;5.50;99.90;;;;;;5059895;28;20040;-78
2022/11/27 02:38:28;;;;;;;16.33;6.43;;;5.60;99.90;;;;;;5053286;28;20037;-78
2022/11/27 02:40:59;;;;;;;20.80;6.47;;;5.60;99.90;;;;;;5059599;28;20035;-79
2022/11/27 02:43:31;;;;;;;19.15;6.10;;;5.60;99.90;;;;;;5060933;28;20126;-78
2022/11/27 02:45:59;;;;;;;13.45;5.25;;;5.60;99.90;;;;;;5055624;28;20024;-79
2022/11/27 02:48:37;;;;;;;11.55;4.43;;;5.60;99.90;;;;;;5056520;28;20119;-79
2022/11/27 02:51:05;;;;;;;12.63;4.90;;;5.50;99.90;;;;;;5061323;28;20032;-79
2022/11/27 02:53:42;;;;;;;11.43;4.95;;;5.50;99.90;;;;;;5063443;28;20147;-79
2022/11/27 02:56:15;;;;;;;12.85;5.45;;;5.60;99.90;;;;;;5056801;28;20108;-78
2022/11/27 02:58:41;;;;;;;16.27;5.65;;;5.60;99.90;;;;;;5056429;28;20045;-79
2022/11/27 03:01:11;;;;;;;11.40;5.15;;;5.70;99.90;;;;;;5052097;28;20033;-78
2022/11/27 03:03:45;;;;;;;13.23;5.43;;;5.70;99.90;;;;;;5057107;28;20025;-78
2022/11/27 03:06:16;;;;;;;10.30;5.35;;;5.60;99.90;;;;;;5058233;28;20123;-78
2022/11/27 03:09:19;;;;;;;11.95;5.25;;;5.60;99.90;;;;;;5056971;28;20034;-78
2022/11/27 03:11:46;;;;;;;13.63;5.75;;;5.60;99.90;;;;;;4994813;28;20549;-79
2022/11/27 03:14:14;;;;;;;21.27;5.78;;;5.70;99.90;;;;;;5046864;28;20385;-78
2022/11/27 03:16:53;;;;;;;14.40;5.07;;;5.80;99.90;;;;;;5059934;28;20543;-79
2022/11/27 03:19:25;;;;;;;10.88;4.88;;;5.90;99.90;;;;;;5062332;28;20512;-79
2022/11/27 03:21:56;;;;;;;13.07;5.22;;;5.90;99.90;;;;;;5060613;28;20699;-78
2022/11/27 03:24:22;;;;;;;12.43;5.05;;;5.90;99.90;;;;;;5064851;28;20021;-79
2022/11/27 03:26:48;;;;;;;11.98;4.80;;;5.90;99.90;;;;;;5062294;28;20037;-79
2022/11/27 03:29:20;;;;;;;15.38;5.93;;;5.90;99.90;;;;;;5056484;28;20040;-79
2022/11/27 03:31:46;;;;;;;21.55;6.07;;;6.00;99.90;;;;;;5064933;28;20477;-80
2022/11/27 03:34:12;;;;;;;22.25;5.60;;;6.00;99.90;;;;;;5062801;28;20028;-78
2022/11/27 03:36:38;;;;;;;18.63;5.65;;;6.00;99.90;;;;;;5059563;28;20033;-79
2022/11/27 03:39:04;;;;;;;18.30;4.72;;;6.10;99.90;;;;;;5062618;28;20039;-79
2022/11/27 03:41:47;;;;;;;21.52;4.90;;;6.10;99.90;;;;;;5054658;28;20086;-80
2022/11/27 03:44:45;;;;;;;11.27;4.78;;;6.20;99.90;;;;;;5062175;28;20123;-79
2022/11/27 03:47:23;;;;;;;23.08;5.97;;;6.20;99.90;;;;;;5063287;28;20025;-79
2022/11/27 03:50:13;;;;;;;16.17;5.55;;;6.20;99.90;;;;;;5056781;28;20071;-78
2022/11/27 03:52:53;;;;;;;16.27;5.40;;;6.30;99.90;;;;;;5061026;28;20442;-79
2022/11/27 03:55:38;;;;;;;16.13;5.00;;;6.20;99.90;;;;;;5059509;28;20039;-79
2022/11/27 03:58:06;;;;;;;17.42;5.90;;;6.30;99.90;;;;;;5059717;28;20055;-78
2022/11/27 04:00:35;;;;;;;19.50;5.53;;;6.30;99.90;;;;;;5060611;28;20123;-79
2022/11/27 04:03:02;;;;;;;15.88;5.68;;;6.30;99.90;;;;;;5061276;28;20458;-79
2022/11/27 04:05:28;;;;;;;16.38;6.22;;;6.30;99.90;;;;;;5064421;28;20040;-79
2022/11/27 04:07:53;;;;;;;18.98;4.95;;;6.30;99.90;;;;;;5062714;28;20021;-79
2022/11/27 04:10:19;;;;;;;10.50;5.03;;;6.30;99.90;;;;;;5061729;28;20493;-80
2022/11/27 04:12:45;;;;;;;21.02;5.15;;;6.30;99.90;;;;;;5063081;28;20036;-80
2022/11/27 04:15:11;;;;;;;10.18;3.67;;;6.30;99.90;;;;;;5058053;28;20036;-79
2022/11/27 04:17:37;;;;;;;11.25;4.90;;;6.30;99.90;;;;;;5060977;28;20086;-81
2022/11/27 04:20:04;;;;;;;20.67;6.10;;;6.30;99.90;;;;;;5054794;28;20545;-80
2022/11/27 04:22:29;;;;;;;22.08;5.47;;;6.30;99.90;;;;;;5050391;28;20276;-79
2022/11/27 04:24:55;;;;;;;16.88;5.68;;;6.30;99.90;;;;;;5061575;28;20021;-78
2022/11/27 04:27:21;;;;;;;19.83;5.60;;;6.30;99.90;;;;;;5062859;28;20523;-79
2022/11/27 04:29:47;;;;;;;14.35;4.50;;;6.30;99.90;;;;;;5059397;28;20064;-78
2022/11/27 04:32:13;;;;;;;13.10;4.53;;;6.40;99.90;;;;;;5051929;28;20036;-79
2022/11/27 04:34:38;;;;;;;12.77;4.72;;;6.30;99.90;;;;;;5055976;28;20029;-80
2022/11/27 04:37:04;;;;;;;13.20;4.22;;;6.30;99.90;;;;;;5056171;28;20077;-81
2022/11/27 04:39:29;;;;;;;12.77;4.05;;;6.40;99.90;;;;;;5056733;28;20041;-79
2022/11/27 04:41:55;;;;;;;17.45;4.05;;;6.50;99.90;;;;;;5056809;28;20036;-79
2022/11/27 04:44:21;;;;;;;20.38;4.68;;;6.50;99.90;;;;;;5054974;28;20484;-79
2022/11/27 04:46:48;;;;;;;17.17;4.25;;;6.60;99.90;;;;;;5055661;28;20029;-79
2022/11/27 04:49:13;;;;;;;10.57;3.88;;;6.60;99.90;;;;;;5061103;28;20025;-78
2022/11/27 04:51:39;;;;;;;12.43;4.38;;;6.60;99.90;;;;;;5063453;28;20039;-78
2022/11/27 04:54:05;;;;;;;14.82;4.05;;;6.60;99.90;;;;;;5063360;28;20351;-78
2022/11/27 04:56:30;;;;;;;10.30;3.20;;;6.50;99.90;;;;;;5051347;28;20207;-78
2022/11/27 04:58:56;;;;;;;12.20;3.75;;;6.50;99.90;;;;;;5062131;28;20045;-79
2022/11/27 05:01:21;;;;;;;8.75;3.25;;;6.40;99.90;;;;;;5055145;28;20025;-79
2022/11/27 05:03:47;;;;;;;11.13;3.88;;;6.50;99.90;;;;;;5059060;28;20025;-78
2022/11/27 05:06:13;;;;;;;7.90;3.28;;;6.50;99.90;;;;;;5055207;28;20041;-77
2022/11/27 05:08:39;;;;;;;14.88;3.83;;;6.50;99.90;;;;;;5057752;28;20032;-78
2022/11/27 05:11:11;;;;;;;9.85;3.72;;;6.50;99.90;;;;;;5058168;28;20014;-77
2022/11/27 05:13:37;;;;;;;18.02;4.63;;;6.60;99.90;;;;;;5058689;28;20040;-78
2022/11/27 05:16:04;;;;;;;18.88;3.80;;;6.50;99.90;;;;;;5061187;28;20139;-77
2022/11/27 05:18:29;;;;;;;10.68;3.10;;;6.50;99.90;;;;;;5058238;28;20039;-77
2022/11/27 05:21:06;;;;;;;15.00;3.55;;;6.50;99.90;;;;;;5061428;28;20040;-77
2022/11/27 05:23:33;;;;;;;11.65;3.60;;;6.40;99.90;;;;;;5057229;28;20652;-77
2022/11/27 05:25:59;;;;;;;10.77;4.00;;;6.40;99.90;;;;;;5064854;28;20031;-77
2022/11/27 05:28:25;;;;;;;15.35;5.15;;;6.50;99.90;;;;;;5059840;28;20028;-77
2022/11/27 05:30:51;;;;;;;7.25;3.40;;;6.40;99.90;;;;;;5061100;28;20095;-78
2022/11/27 05:33:17;;;;;;;10.10;3.78;;;6.30;99.90;;;;;;5062309;28;20028;-78
2022/11/27 05:35:44;;;;;;;5.82;3.38;;;6.30;99.90;;;;;;5059561;28;20446;-78
2022/11/27 05:38:10;;;;;;;12.75;3.60;;;6.20;99.90;;;;;;5055022;28;20073;-77
2022/11/27 05:40:37;;;;;;;9.43;3.63;;;6.20;99.90;;;;;;5060008;28;20045;-77
2022/11/27 05:43:03;;;;;;;8.90;3.33;;;6.10;99.90;;;;;;5063659;28;20059;-77
2022/11/27 05:45:29;;;;;;;7.97;3.22;;;6.10;99.90;;;;;;5061553;28;20056;-77
2022/11/27 05:47:54;;;;;;;8.45;3.65;;;6.00;99.90;;;;;;5050202;28;20423;-78
2022/11/27 05:50:20;;;;;;;13.43;3.83;;;6.00;99.90;;;;;;5059048;28;20033;-77
2022/11/27 05:52:45;;;;;;;4.55;3.10;;;5.90;99.90;;;;;;5059253;28;20090;-78
2022/11/27 05:55:11;;;;;;;11.63;4.10;;;5.90;99.90;;;;;;5056280;28;20032;-78
2022/11/27 05:57:37;;;;;;;14.50;3.92;;;5.80;99.90;;;;;;5060804;28;20101;-77
2022/11/27 06:00:04;;;;;;;7.80;3.35;;;5.80;99.90;;;;;;5058127;28;20044;-77
2022/11/27 06:02:30;;;;;;;17.00;3.53;;;5.80;99.90;;;;;;5061916;28;20103;-78
2022/11/27 06:04:57;;;;;;;11.43;3.25;;;5.80;99.90;;;;;;5060487;28;20050;-78
2022/11/27 06:07:22;;;;;;;6.72;3.08;;;6.00;99.90;;;;;;5055265;28;20056;-78
2022/11/27 06:09:48;;;;;;;5.88;2.83;;;5.90;99.90;;;;;;5060938;28;20670;-79
2022/11/27 06:12:14;;;;;;;13.90;3.92;;;5.90;99.90;;;;;;5060859;28;20519;-78
2022/11/27 06:14:39;;;;;;;9.88;4.10;;;5.90;99.90;;;;;;5051460;28;20025;-78
2022/11/27 06:17:05;;;;;;;8.27;3.60;;;6.00;99.90;;;;;;5057353;28;20025;-78
2022/11/27 06:19:31;;;;;;;14.07;4.05;;;5.90;99.90;;;;;;5057325;28;20055;-78
2022/11/27 06:21:57;;;;;;;12.30;3.85;;;6.10;99.90;;;;;;5060100;28;20032;-78
2022/11/27 06:24:23;;;;;;;11.90;3.40;;;6.10;99.90;;;;;;5058893;28;20108;-78
2022/11/27 06:26:48;;;;;;;12.48;3.90;;;6.20;99.90;;;;;;5061938;28;20103;-78
2022/11/27 06:29:14;;;;;;;15.90;4.32;;;6.20;99.90;;;;;;5054059;28;20113;-78
2022/11/27 06:31:40;;;;;;;16.75;3.90;;;6.30;99.90;;;;;;5053852;28;20025;-80
2022/11/27 06:34:05;;;;;;;12.88;4.30;;;6.40;99.90;;;;;;5057818;28;20029;-79
2022/11/27 06:36:35;;;;;;;7.32;4.00;;;6.30;99.90;;;;;;5060250;28;20036;-78
2022/11/27 06:39:03;;;;;;;10.48;3.25;;;6.20;99.90;;;;;;5052460;28;20037;-79
2022/11/27 06:41:29;;;;;;;16.65;3.75;;;6.20;99.90;;;;;;5052616;28;20565;-79
2022/11/27 06:43:58;;;;;;;11.35;3.53;;;6.30;99.90;;;;;;5058006;28;20060;-79
2022/11/27 06:46:24;;;;;;;11.77;3.90;;;6.30;99.90;;;;;;5059881;28;20024;-79
2022/11/27 06:48:52;;;;;;;6.68;2.88;;;6.40;99.90;;;;;;5058057;28;20041;-80
2022/11/27 06:51:24;;;;;;;21.60;6.68;;;6.30;99.90;;;;;;5064126;28;20024;-80
2022/11/27 06:53:50;;;;;;;11.20;4.18;;;6.40;99.90;;;;;;5063879;28;20028;-78
2022/11/27 06:56:21;;;;;;;14.23;4.93;;;6.40;99.90;;;;;;5060273;28;20039;-79
2022/11/27 06:58:50;;;;;;;15.27;3.63;;;6.40;99.90;;;;;;5060139;28;20509;-79
2022/11/27 07:01:16;;;;;;;9.15;3.38;;;6.40;99.90;;;;;;5063928;28;20036;-79
2022/11/27 07:03:42;;;;;;;10.75;3.42;;;6.30;99.90;;;;;;5062092;28;20031;-79
2022/11/27 07:06:12;;;;;;;9.60;4.07;;;6.30;99.90;;;;;;5063413;28;20024;-79
2022/11/27 07:08:38;;;;;;;10.25;4.07;;;6.30;99.90;;;;;;5060768;28;20025;-79
2022/11/27 07:11:17;;;;;;;12.85;3.85;;;6.30;99.90;;;;;;5063082;28;20263;-79
2022/11/27 07:13:43;;;;;;;9.52;3.30;;;6.30;99.90;;;;;;5059436;28;20110;-79
2022/11/27 07:16:10;;;;;;;12.75;3.35;;;6.30;99.90;;;;;;5056883;28;20377;-79
2022/11/27 07:18:38;;;;;;;11.07;3.40;;;6.30;99.90;;;;;;5055856;28;20669;-79
2022/11/27 07:21:04;;;;;;;11.57;3.30;;;6.40;99.90;;;;;;5059207;28;20037;-79
2022/11/27 07:23:29;;;;;;;12.57;3.33;;;6.40;99.90;;;;;;5054560;28;20418;-79
2022/11/27 07:25:55;;;;;;;10.55;3.53;;;6.40;99.90;;;;;;5056838;28;20033;-78
2022/11/27 07:28:20;;;;;;;8.90;3.22;;;6.40;99.90;;;;;;5062072;28;20054;-78
2022/11/27 07:30:59;;;;;;;9.45;4.07;;;6.50;99.90;;;;;;5055321;28;20060;-78
2022/11/27 07:33:25;;;;;;;14.63;4.50;;;6.50;99.90;;;;;;5058734;28;20115;-78
2022/11/27 07:36:06;;;;;;;9.13;3.78;;;6.50;99.90;;;;;;5064097;28;20131;-78
2022/11/27 07:38:34;;;;;;;12.50;3.92;;;6.50;99.90;;;;;;5061183;28;20042;-77
2022/11/27 07:41:01;;;;;;;11.90;3.35;;;6.50;99.90;;;;;;5056766;28;20044;-78
2022/11/27 07:43:28;;;;;;;6.75;3.20;;;6.50;99.90;;;;;;5063521;28;20029;-79
2022/11/27 07:45:53;;;;;;;5.88;3.00;;;6.50;99.90;;;;;;5061305;28;20089;-78
2022/11/27 07:48:19;;;;;;;12.20;3.20;;;6.50;99.90;;;;;;5051387;28;20025;-78
2022/11/27 07:50:45;;;;;;;12.20;4.50;;;6.50;99.90;;;;;;5057983;28;20100;-78
2022/11/27 07:53:11;;;;;;;5.05;2.90;;;6.50;99.90;;;;;;5054952;28;20044;-78
2022/11/27 07:55:38;;;;;;;17.55;3.60;;;6.50;99.90;;;;;;5049972;28;20033;-78
2022/11/27 07:58:04;;;;;;;6.38;3.22;;;6.50;99.90;;;;;;5059954;28;20136;-79
2022/11/27 08:00:30;;;;;;;11.95;2.92;;;6.60;99.90;;;;;;5061681;28;20451;-78
2022/11/27 08:02:57;;;;;;;14.73;2.88;;;6.50;99.90;;;;;;5057111;28;20033;-79
2022/11/27 08:05:22;;;;;;;8.65;2.95;;;6.70;99.90;;;;;;5054195;28;20016;-80
2022/11/27 08:07:48;;;;;;;8.88;3.22;;;6.80;99.90;;;;;;5060422;28;20487;-79
2022/11/27 08:10:14;;;;;;;7.05;2.80;;;6.90;99.90;;;;;;5058942;28;20021;-79
2022/11/27 08:12:39;;;;;;;7.03;2.72;;;6.90;99.90;;;;;;5058990;28;20028;-80
2022/11/27 08:15:05;;;;;;;7.35;2.55;;;6.90;99.90;;;;;;5061373;28;20489;-80
2022/11/27 08:17:31;;;;;;;8.02;3.17;;;6.90;99.90;;;;;;5058776;28;20051;-81
2022/11/27 08:19:57;;;;;;;9.50;2.60;;;6.90;99.90;;;;;;5053610;28;20490;-79
2022/11/27 08:22:22;;;;;;;9.80;3.13;;;7.00;99.90;;;;;;5052852;28;20432;-80
2022/11/27 08:24:49;;;;;;;6.57;2.83;;;7.00;99.90;;;;;;5056970;28;20025;-80
2022/11/27 08:27:15;;;;;;;4.28;2.50;;;7.00;99.90;;;;;;5064495;28;20024;-80
2022/11/27 08:29:41;;;;;;;11.98;2.92;;;7.00;99.90;;;;;;5059121;28;20099;-80
2022/11/27 08:32:07;;;;;;;8.43;2.70;;;7.00;99.90;;;;;;5059272;28;20120;-80
2022/11/27 08:34:32;;;;;;;8.55;2.92;;;7.00;99.90;;;;;;5054769;28;20136;-80
2022/11/27 08:36:58;;;;;;;7.63;2.85;;;7.10;99.90;;;;;;5063479;28;20074;-80
2022/11/27 08:39:25;;;;;;;8.20;2.40;;;7.00;99.90;;;;;;5063766;28;20047;-80
2022/11/27 08:41:51;;;;;;;7.18;2.83;;;7.00;99.90;;;;;;5063551;28;20111;-80
2022/11/27 08:44:17;;;;;;;8.73;3.08;;;7.00;99.90;;;;;;5064125;28;20116;-79
2022/11/27 08:46:43;;;;;;;8.55;3.30;;;7.00;99.90;;;;;;5057487;28;20028;-80
2022/11/27 08:49:08;;;;;;;8.70;3.30;;;7.20;99.90;;;;;;5057545;28;20039;-80
2022/11/27 08:51:35;;;;;;;10.88;3.47;;;7.20;99.90;;;;;;5059575;28;20530;-80
2022/11/27 08:54:01;;;;;;;12.80;4.20;;;7.20;99.90;;;;;;5063637;28;20485;-79
2022/11/27 08:56:26;;;;;;;8.75;2.85;;;7.30;99.90;;;;;;5066125;28;20020;-81
2022/11/27 08:58:52;;;;;;;6.40;2.67;;;7.30;99.90;;;;;;5058239;28;20032;-80
2022/11/27 09:01:21;;;;;;;8.82;2.75;;;7.30;99.90;;;;;;5062705;28;20133;-80
2022/11/27 09:03:48;;;;;;;12.13;4.25;;;7.30;99.90;;;;;;5056269;28;20033;-78
2022/11/27 09:06:20;;;;;;;8.30;3.08;;;7.30;99.90;;;;;;5057954;28;20054;-80
2022/11/27 09:08:46;;;;;;;12.68;3.53;;;7.30;99.90;;;;;;5061813;28;20036;-79
2022/11/27 09:11:13;;;;;;;7.13;2.55;;;7.40;99.90;;;;;;5060520;28;20094;-80
2022/11/27 09:13:39;;;;;;;6.93;2.30;;;7.50;99.90;;;;;;5061440;28;20017;-80
2022/11/27 09:16:07;;;;;;;6.25;3.22;;;7.40;99.90;;;;;;5051698;28;20367;-80
2022/11/27 09:18:33;;;;;;;11.48;4.45;;;7.40;99.90;;;;;;5058215;28;20151;-80
2022/11/27 09:21:03;;;;;;;6.28;2.53;;;7.50;99.90;;;;;;5060503;28;20036;-80
2022/11/27 09:23:29;;;;;;;9.98;2.83;;;7.50;99.90;;;;;;5055250;28;20098;-80
2022/11/27 09:25:59;;;;;;;6.15;2.60;;;7.50;99.90;;;;;;5055473;28;20115;-80
2022/11/27 09:28:25;;;;;;;6.43;2.58;;;7.50;99.90;;;;;;5059678;28;20116;-80
2022/11/27 09:30:58;;;;;;;8.18;3.22;;;7.50;99.90;;;;;;5064263;28;20107;-80
2022/11/27 09:33:26;;;;;;;7.30;2.60;;;7.50;99.90;;;;;;5059967;28;20024;-80
2022/11/27 09:35:53;;;;;;;5.93;2.67;;;7.50;99.90;;;;;;5065098;28;20029;-80
2022/11/27 09:38:19;;;;;;;8.27;3.58;;;7.50;99.90;;;;;;5060781;28;20150;-80
2022/11/27 09:40:51;;;;;;;16.08;5.53;;;7.60;99.90;;;;;;5057711;28;20127;-81
2022/11/27 09:43:23;;;;;;;9.70;3.42;;;7.60;99.90;;;;;;5058441;28;20024;-79
2022/11/27 09:45:54;;;;;;;7.30;3.42;;;7.70;99.90;;;;;;5056007;28;20037;-80
2022/11/27 09:48:40;;;;;;;9.20;2.72;;;7.70;99.90;;;;;;5056436;28;20112;-79
2022/11/27 09:51:30;;;;;;;7.70;3.50;;;7.80;99.90;;;;;;5057433;28;20032;-80
2022/11/27 09:54:18;;;;;;;13.35;3.28;;;7.80;99.90;;;;;;5056355;28;20037;-79
2022/11/27 09:56:48;;;;;;;9.32;2.75;;;7.80;99.90;;;;;;5059191;28;20024;-79
2022/11/27 09:59:17;;;;;;;12.80;3.85;;;7.80;99.90;;;;;;5056444;28;20523;-80
2022/11/27 10:01:43;;;;;;;14.18;3.22;;;7.90;99.90;;;;;;5058002;28;20474;-79
2022/11/27 10:04:12;;;;;;;13.98;3.03;;;8.00;99.90;;;;;;5057316;28;20154;-80
2022/11/27 10:07:15;;;;;;;5.03;2.70;;;8.00;99.90;;;;;;5057782;28;20029;-79
2022/11/27 10:10:07;;;;;;;9.38;2.28;;;8.10;99.90;;;;;;5054831;28;20031;-79
2022/11/27 10:12:40;;;;;;;5.85;2.35;;;8.20;99.90;;;;;;5056949;28;20465;-79
2022/11/27 10:15:17;;;;;;;6.53;2.53;;;8.10;99.90;;;;;;5058884;28;20033;-80
2022/11/27 10:17:54;;;;;;;5.85;2.65;;;8.20;99.90;;;;;;5057570;28;20081;-79
2022/11/27 10:21:01;;;;;;;10.02;2.60;;;8.20;99.90;;;;;;5062244;28;20045;-79
2022/11/27 10:23:37;;;;;;;;;;;8.30;99.90;;;;;;5020913;28;20029;-80
2022/11/27 10:26:12;;;;;;;8.02;2.75;;;8.20;99.90;;;;;;5050719;28;20288;-79
2022/11/27 10:28:50;;;;;;;5.50;2.17;;;8.30;99.90;;;;;;5056941;28;21102;-79
2022/11/27 10:31:28;;;;;;;6.35;2.42;;;8.30;99.90;;;;;;5056568;28;20040;-80
2022/11/27 10:34:02;;;;;;;6.00;2.30;;;8.30;99.90;;;;;;5056118;28;20037;-80
2022/11/27 10:36:33;;;;;;;5.47;2.15;;;8.30;99.90;;;;;;5055744;28;20020;-79
2022/11/27 10:39:03;;;;;;;5.85;2.67;;;8.20;99.90;;;;;;5055339;28;20386;-79
2022/11/27 10:41:36;;;;;;;10.65;2.72;;;8.20;99.90;;;;;;5060232;28;20162;-79
2022/11/27 10:44:21;;;;;;;10.27;3.28;;;8.20;99.90;;;;;;5061136;28;20119;-79
2022/11/27 10:46:49;;;;;;;37.05;11.15;;;8.20;99.90;;;;;;5060836;28;20029;-79
2022/11/27 10:49:15;;;;;;;15.65;5.05;;;8.30;99.90;;;;;;5062473;28;20031;-79
2022/11/27 10:51:41;;;;;;;11.68;3.42;;;8.30;99.90;;;;;;5055185;28;20466;-79
2022/11/27 10:54:18;;;;;;;7.50;2.30;;;8.20;99.90;;;;;;5059229;28;20065;-79
2022/11/27 10:57:16;;;;;;;8.30;3.33;;;8.10;99.90;;;;;;5056663;28;20035;-79
2022/11/27 11:00:00;;;;;;;6.63;3.15;;;8.10;99.90;;;;;;5033344;28;20072;-79
2022/11/27 11:02:29;;;;;;;9.55;3.58;;;8.10;99.90;;;;;;5059027;28;20036;-79
2022/11/27 11:04:55;;;;;;;9.40;3.13;;;8.00;99.90;;;;;;5057607;28;20397;-80
2022/11/27 11:07:28;;;;;;;11.43;3.55;;;8.00;99.90;;;;;;5053928;28;20024;-79
2022/11/27 11:09:54;;;;;;;10.35;3.53;;;8.10;99.90;;;;;;5052250;28;20037;-83
2022/11/27 11:12:21;;;;;;;6.03;2.70;;;8.10;99.90;;;;;;5058935;28;20037;-79
2022/11/27 11:14:54;;;;;;;9.68;3.10;;;8.10;99.90;;;;;;5061193;28;20094;-80
2022/11/27 11:17:36;;;;;;;9.43;3.15;;;8.20;99.90;;;;;;5059289;28;20039;-79
2022/11/27 11:20:20;;;;;;;6.05;2.88;;;8.20;99.90;;;;;;5056519;28;20044;-79
2022/11/27 11:22:46;;;;;;;7.30;2.38;;;8.30;99.90;;;;;;5057992;28;20051;-79
2022/11/27 11:25:21;;;;;;;5.15;2.75;;;8.30;99.90;;;;;;5058336;28;20412;-79
2022/11/27 11:27:49;;;;;;;8.32;3.35;;;8.30;99.90;;;;;;5054041;28;20112;-80
2022/11/27 11:30:27;;;;;;;12.70;2.90;;;8.30;99.90;;;;;;5054195;28;20564;-80
2022/11/27 11:33:01;;;;;;;7.60;2.60;;;8.30;99.90;;;;;;5058090;28;20037;-80
2022/11/27 11:35:36;;;;;;;5.75;2.38;;;8.40;99.90;;;;;;5055536;28;20108;-79
2022/11/27 11:38:13;;;;;;;5.50;2.30;;;8.40;99.90;;;;;;5062291;28;20028;-80
2022/11/27 11:40:43;;;;;;;3.90;2.40;;;8.40;99.90;;;;;;5059093;28;20083;-79
2022/11/27 11:43:27;;;;;;;4.80;2.53;;;8.40;99.90;;;;;;5062424;28;20029;-80
2022/11/27 11:45:52;;;;;;;14.75;5.55;;;8.60;99.90;;;;;;5056707;28;20024;-81
2022/11/27 11:48:24;;;;;;;7.60;2.80;;;8.70;99.90;;;;;;5064538;28;20080;-79
2022/11/27 11:51:03;;;;;;;9.93;2.75;;;8.80;99.90;;;;;;5063152;28;20086;-80
2022/11/27 11:53:44;;;;;;;6.72;2.50;;;8.80;99.90;;;;;;5056866;28;20507;-80
2022/11/27 11:56:31;;;;;;;8.38;2.40;;;8.70;99.90;;;;;;5059104;28;20036;-80
2022/11/27 11:59:01;;;;;;;8.68;3.28;;;8.70;99.90;;;;;;5065689;28;20049;-82
2022/11/27 12:01:39;;;;;;;8.55;3.00;;;8.70;99.90;;;;;;5061832;28;20072;-81
2022/11/27 12:04:22;;;;;;;13.38;3.83;;;8.70;99.90;;;;;;5062052;28;20059;-80
2022/11/27 12:06:53;;;;;;;7.72;2.70;;;8.70;99.90;;;;;;5062756;28;20028;-80
2022/11/27 12:09:44;;;;;;;7.38;2.88;;;8.70;99.90;;;;;;5064040;28;20036;-79
2022/11/27 12:12:30;;;;;;;10.80;2.92;;;8.70;99.90;;;;;;5060517;28;20021;-79
2022/11/27 12:15:04;;;;;;;9.32;3.03;;;8.80;99.90;;;;;;5062101;28;20463;-80
2022/11/27 12:17:41;;;;;;;10.10;2.70;;;8.80;99.90;;;;;;5061379;28;20016;-80
2022/11/27 12:20:19;;;;;;;6.05;2.80;;;8.80;99.90;;;;;;5060108;28;20119;-79
2022/11/27 12:23:03;;;;;;;9.35;4.63;;;8.80;99.90;;;;;;5052300;28;20025;-80
2022/11/27 12:25:50;;;;;;;10.77;3.10;;;8.80;99.90;;;;;;5061476;28;20097;-80
2022/11/27 12:28:28;;;;;;;12.02;3.33;;;8.90;99.90;;;;;;5062210;28;20369;-79
2022/11/27 12:31:22;;;;;;;10.43;3.50;;;8.80;99.90;;;;;;5056437;28;20382;-80
2022/11/27 12:33:47;;;;;;;9.95;2.60;;;8.70;99.90;;;;;;5054094;28;20159;-79
2022/11/27 12:36:34;;;;;;;4.57;2.50;;;8.70;99.90;;;;;;5062287;28;20112;-79
2022/11/27 12:39:22;;;;;;;6.15;2.50;;;8.60;99.90;;;;;;5061313;28;20725;-79
2022/11/27 12:42:19;;;;;;;8.18;2.55;;;8.50;99.90;;;;;;5059597;28;20047;-79
2022/11/27 12:45:18;;;;;;;8.65;3.08;;;8.60;99.90;;;;;;5059264;28;20040;-79
2022/11/27 12:47:52;;;;;;;10.48;2.95;;;8.60;99.90;;;;;;5061040;28;20040;-79
2022/11/27 12:50:17;;;;;;;13.15;4.30;;;8.60;99.90;;;;;;5063062;28;20024;-80
2022/11/27 12:52:49;;;;;;;15.05;4.25;;;8.60;99.90;;;;;;5058865;28;20035;-80
2022/11/27 12:55:19;;;;;;;12.52;2.90;;;8.70;99.90;;;;;;5051976;28;20032;-79
2022/11/27 12:57:51;;;;;;;13.82;3.60;;;8.80;99.90;;;;;;5061834;28;20412;-79
2022/11/27 13:00:18;;;;;;;13.18;4.50;;;8.80;99.90;;;;;;5058365;28;20048;-80
2022/11/27 13:03:09;;;;;;;13.05;5.55;;;8.80;99.90;;;;;;5057875;28;20032;-79
2022/11/27 13:05:46;;;;;;;19.65;3.17;;;8.70;99.90;;;;;;5056648;28;20025;-79
2022/11/27 13:08:24;;;;;;;9.75;3.05;;;8.70;99.90;;;;;;5056392;28;20386;-78